Grande Prairie Airport
CYQU : now visible

Airfield :











YOU CAN JOIN US ON...

 
LOGIN :

Register | Disclaimer

   EN    FR    IT 

 









Legend :    VFR   Marginal VFR   IFR   Intensive IFR   Very Intensive IFR
Visi :
Ceiling :
>= 8 km
>= 3000ft
5 to 8 km
1000 to 3000 ft
1500m to 5 km
500 to 1000 ft
800 to 1500m
200 to 500 ft
< 800m
< 200 ft
Symbols :   Thunderstorms  Fog  Heavy snow  Heavy precipitations  Wind > 20 kt






- Airport Elevation : 2195 ft
- IATA code : YQU


CYQU - Grande Prairie

CURRENT METAR :
  • 110200Z 25018G25KT 25SM FEW070 SCT240 17/03 A2988 RMK AC1CI2 SLP129 DENSITY ALT 3000FT

EXPIRED METARs :
  • 110100Z 25021G28KT 25SM FEW070 SCT240 18/03 A2988 RMK CU2CI2 SLP129 DENSITY ALT 3100FT
  • 110000Z 26025G30KT 25SM FEW070 SCT240 19/04 A2988 RMK CU2CI2 SLP131 DENSITY ALT 3200FT

TAF TAF CYQU
Valid from the 11 at 01:00 until the 11 at 13:00 UTC


110038Z 1101/1113 25020G30KT P6SM FEW080 SCT240
BECMG 1103/1105 25012G22KT
FM110800 25010KT P6SM SKC RMK NXT FCST BY 110700Z
CZEG FIR / North America



MET'MAP, your aeronautical weather chart ! - Copyright ORBIFLY December 2007 - Disclaimer

ORBIFLY MET'MAP TEAM :

Programming & Development : Alexandra Zaïnal
Concept & original design : Baudouin d'Aumeries
Assistance for programming : Marc-Olivier Méhu
Technical & hardware support : Manuel Goepfert

Contact : metmap@orbifly.com




SOURCES & CREDITS :

   NOAA       Earth
Advisory